sensor_id;sensor_type;location;lat;lon;timestamp;P1;durP1;ratioP1;P2;durP2;ratioP2
23068;SDS011;11702;50.856;4.348;2022-08-14T00:01:58;3.97;;;2.95;;
23068;SDS011;11702;50.856;4.348;2022-08-14T00:04:32;3.95;;;2.17;;
23068;SDS011;11702;50.856;4.348;2022-08-14T00:06:58;5.37;;;2.30;;
23068;SDS011;11702;50.856;4.348;2022-08-14T00:09:24;6.25;;;2.60;;
23068;SDS011;11702;50.856;4.348;2022-08-14T00:11:49;6.70;;;2.50;;
23068;SDS011;11702;50.856;4.348;2022-08-14T00:14:16;6.43;;;2.67;;
23068;SDS011;11702;50.856;4.348;2022-08-14T00:16:42;6.18;;;2.53;;
23068;SDS011;11702;50.856;4.348;2022-08-14T00:19:08;6.63;;;2.65;;
23068;SDS011;11702;50.856;4.348;2022-08-14T00:21:34;3.85;;;2.42;;
23068;SDS011;11702;50.856;4.348;2022-08-14T00:23:59;6.22;;;2.15;;
23068;SDS011;11702;50.856;4.348;2022-08-14T00:26:25;4.05;;;2.40;;
23068;SDS011;11702;50.856;4.348;2022-08-14T00:28:51;3.47;;;2.30;;
23068;SDS011;11702;50.856;4.348;2022-08-14T00:31:17;4.50;;;2.00;;
23068;SDS011;11702;50.856;4.348;2022-08-14T00:33:43;4.55;;;2.08;;
23068;SDS011;11702;50.856;4.348;2022-08-14T00:36:09;6.30;;;2.15;;
23068;SDS011;11702;50.856;4.348;2022-08-14T00:38:35;4.68;;;2.13;;
23068;SDS011;11702;50.856;4.348;2022-08-14T00:41:02;4.93;;;1.80;;
23068;SDS011;11702;50.856;4.348;2022-08-14T00:43:29;4.05;;;2.05;;
23068;SDS011;11702;50.856;4.348;2022-08-14T00:45:54;3.88;;;2.33;;
23068;SDS011;11702;50.856;4.348;2022-08-14T00:48:20;13.32;;;2.40;;
23068;SDS011;11702;50.856;4.348;2022-08-14T00:50:45;5.13;;;2.20;;
23068;SDS011;11702;50.856;4.348;2022-08-14T00:53:11;2.20;;;1.90;;
23068;SDS011;11702;50.856;4.348;2022-08-14T00:55:37;4.10;;;2.10;;
23068;SDS011;11702;50.856;4.348;2022-08-14T00:58:05;3.30;;;2.00;;
23068;SDS011;11702;50.856;4.348;2022-08-14T01:00:50;5.07;;;2.72;;
23068;SDS011;11702;50.856;4.348;2022-08-14T01:03:17;4.85;;;2.95;;
23068;SDS011;11702;50.856;4.348;2022-08-14T01:05:44;3.97;;;2.60;;
23068;SDS011;11702;50.856;4.348;2022-08-14T01:08:15;5.00;;;3.05;;
23068;SDS011;11702;50.856;4.348;2022-08-14T01:10:46;4.55;;;2.58;;
23068;SDS011;11702;50.856;4.348;2022-08-14T01:13:17;8.02;;;2.80;;
23068;SDS011;11702;50.856;4.348;2022-08-14T01:15:46;2.97;;;2.50;;
23068;SDS011;11702;50.856;4.348;2022-08-14T01:18:13;3.00;;;2.60;;
23068;SDS011;11702;50.856;4.348;2022-08-14T01:20:58;6.80;;;3.05;;
23068;SDS011;11702;50.856;4.348;2022-08-14T01:23:31;4.00;;;2.85;;
23068;SDS011;11702;50.856;4.348;2022-08-14T01:25:58;3.92;;;2.63;;
23068;SDS011;11702;50.856;4.348;2022-08-14T01:28:24;4.13;;;2.97;;
23068;SDS011;11702;50.856;4.348;2022-08-14T01:30:50;6.53;;;3.00;;
23068;SDS011;11702;50.856;4.348;2022-08-14T01:35:52;6.97;;;2.85;;
23068;SDS011;11702;50.856;4.348;2022-08-14T01:38:27;5.97;;;2.97;;
23068;SDS011;11702;50.856;4.348;2022-08-14T01:40:59;3.50;;;2.88;;
23068;SDS011;11702;50.856;4.348;2022-08-14T01:43:49;4.63;;;2.55;;
23068;SDS011;11702;50.856;4.348;2022-08-14T01:46:18;5.60;;;3.05;;
23068;SDS011;11702;50.856;4.348;2022-08-14T01:48:48;6.28;;;2.65;;
23068;SDS011;11702;50.856;4.348;2022-08-14T01:51:15;8.23;;;3.25;;
23068;SDS011;11702;50.856;4.348;2022-08-14T01:53:47;3.25;;;2.60;;
23068;SDS011;11702;50.856;4.348;2022-08-14T01:56:18;7.22;;;3.17;;
23068;SDS011;11702;50.856;4.348;2022-08-14T01:58:44;5.05;;;2.88;;
23068;SDS011;11702;50.856;4.348;2022-08-14T02:01:17;6.63;;;3.20;;
23068;SDS011;11702;50.856;4.348;2022-08-14T02:03:44;5.80;;;2.60;;
23068;SDS011;11702;50.856;4.348;2022-08-14T02:06:11;3.83;;;3.15;;
23068;SDS011;11702;50.856;4.348;2022-08-14T02:08:38;7.70;;;3.13;;
23068;SDS011;11702;50.856;4.348;2022-08-14T02:11:05;5.47;;;2.70;;
23068;SDS011;11702;50.856;4.348;2022-08-14T02:16:23;7.70;;;3.42;;
23068;SDS011;11702;50.856;4.348;2022-08-14T02:18:57;6.85;;;2.90;;
23068;SDS011;11702;50.856;4.348;2022-08-14T02:21:25;7.65;;;2.63;;
23068;SDS011;11702;50.856;4.348;2022-08-14T02:23:52;4.55;;;2.90;;
23068;SDS011;11702;50.856;4.348;2022-08-14T02:26:21;8.77;;;2.83;;
23068;SDS011;11702;50.856;4.348;2022-08-14T02:28:53;7.25;;;3.28;;
23068;SDS011;11702;50.856;4.348;2022-08-14T02:31:21;8.53;;;2.53;;
23068;SDS011;11702;50.856;4.348;2022-08-14T02:33:47;7.45;;;3.10;;
23068;SDS011;11702;50.856;4.348;2022-08-14T02:36:13;7.53;;;2.55;;
23068;SDS011;11702;50.856;4.348;2022-08-14T02:38:39;4.03;;;3.25;;
23068;SDS011;11702;50.856;4.348;2022-08-14T02:41:09;5.05;;;3.15;;
23068;SDS011;11702;50.856;4.348;2022-08-14T02:43:36;10.77;;;2.83;;
23068;SDS011;11702;50.856;4.348;2022-08-14T02:46:04;4.82;;;2.47;;
23068;SDS011;11702;50.856;4.348;2022-08-14T02:48:33;4.68;;;2.67;;
23068;SDS011;11702;50.856;4.348;2022-08-14T02:51:01;6.70;;;3.38;;
23068;SDS011;11702;50.856;4.348;2022-08-14T02:53:29;6.13;;;3.22;;
23068;SDS011;11702;50.856;4.348;2022-08-14T02:55:55;6.90;;;2.97;;
23068;SDS011;11702;50.856;4.348;2022-08-14T02:58:22;4.60;;;2.70;;
23068;SDS011;11702;50.856;4.348;2022-08-14T03:00:48;9.85;;;3.03;;
23068;SDS011;11702;50.856;4.348;2022-08-14T03:03:15;12.13;;;3.60;;
23068;SDS011;11702;50.856;4.348;2022-08-14T03:05:41;6.03;;;3.15;;
23068;SDS011;11702;50.856;4.348;2022-08-14T03:08:08;6.03;;;2.97;;
23068;SDS011;11702;50.856;4.348;2022-08-14T03:10:36;7.38;;;3.20;;
23068;SDS011;11702;50.856;4.348;2022-08-14T03:13:02;6.53;;;2.67;;
23068;SDS011;11702;50.856;4.348;2022-08-14T03:15:29;10.32;;;3.10;;
23068;SDS011;11702;50.856;4.348;2022-08-14T03:17:57;6.38;;;3.60;;
23068;SDS011;11702;50.856;4.348;2022-08-14T03:20:23;6.25;;;2.83;;
23068;SDS011;11702;50.856;4.348;2022-08-14T03:22:49;4.30;;;2.80;;
23068;SDS011;11702;50.856;4.348;2022-08-14T03:25:16;5.57;;;2.90;;
23068;SDS011;11702;50.856;4.348;2022-08-14T03:27:42;6.32;;;3.17;;
23068;SDS011;11702;50.856;4.348;2022-08-14T03:30:08;10.50;;;3.17;;
23068;SDS011;11702;50.856;4.348;2022-08-14T03:32:34;7.90;;;3.20;;
23068;SDS011;11702;50.856;4.348;2022-08-14T03:35:00;6.72;;;3.90;;
23068;SDS011;11702;50.856;4.348;2022-08-14T03:37:25;6.65;;;3.70;;
23068;SDS011;11702;50.856;4.348;2022-08-14T03:39:51;6.78;;;3.63;;
23068;SDS011;11702;50.856;4.348;2022-08-14T03:42:17;13.43;;;3.78;;
23068;SDS011;11702;50.856;4.348;2022-08-14T03:44:43;8.55;;;3.55;;
23068;SDS011;11702;50.856;4.348;2022-08-14T03:47:09;7.10;;;3.92;;
23068;SDS011;11702;50.856;4.348;2022-08-14T03:49:36;8.73;;;3.70;;
23068;SDS011;11702;50.856;4.348;2022-08-14T03:52:02;5.40;;;3.35;;
23068;SDS011;11702;50.856;4.348;2022-08-14T03:54:29;5.90;;;3.38;;
23068;SDS011;11702;50.856;4.348;2022-08-14T03:56:59;7.23;;;3.37;;
23068;SDS011;11702;50.856;4.348;2022-08-14T03:59:25;6.25;;;3.70;;
23068;SDS011;11702;50.856;4.348;2022-08-14T04:01:51;6.88;;;3.00;;
23068;SDS011;11702;50.856;4.348;2022-08-14T04:04:17;7.13;;;3.00;;
23068;SDS011;11702;50.856;4.348;2022-08-14T04:06:43;3.90;;;3.22;;
23068;SDS011;11702;50.856;4.348;2022-08-14T04:09:08;9.43;;;3.30;;
23068;SDS011;11702;50.856;4.348;2022-08-14T04:11:35;9.75;;;3.20;;
23068;SDS011;11702;50.856;4.348;2022-08-14T04:14:02;3.53;;;3.00;;
23068;SDS011;11702;50.856;4.348;2022-08-14T04:16:30;5.05;;;2.85;;
23068;SDS011;11702;50.856;4.348;2022-08-14T04:18:56;6.88;;;3.08;;
23068;SDS011;11702;50.856;4.348;2022-08-14T04:21:23;5.20;;;2.97;;
23068;SDS011;11702;50.856;4.348;2022-08-14T04:23:53;5.70;;;2.70;;
23068;SDS011;11702;50.856;4.348;2022-08-14T04:26:22;7.47;;;3.20;;
23068;SDS011;11702;50.856;4.348;2022-08-14T04:28:48;3.45;;;2.75;;
23068;SDS011;11702;50.856;4.348;2022-08-14T04:31:15;6.60;;;3.00;;
23068;SDS011;11702;50.856;4.348;2022-08-14T04:33:43;4.80;;;2.80;;
23068;SDS011;11702;50.856;4.348;2022-08-14T04:36:08;4.03;;;2.85;;
23068;SDS011;11702;50.856;4.348;2022-08-14T04:38:34;5.18;;;2.80;;
23068;SDS011;11702;50.856;4.348;2022-08-14T04:41:18;6.40;;;3.08;;
23068;SDS011;11702;50.856;4.348;2022-08-14T04:44:02;6.03;;;2.80;;
23068;SDS011;11702;50.856;4.348;2022-08-14T04:46:29;4.45;;;2.63;;
23068;SDS011;11702;50.856;4.348;2022-08-14T04:48:57;6.43;;;2.90;;
23068;SDS011;11702;50.856;4.348;2022-08-14T04:51:23;5.60;;;2.60;;
23068;SDS011;11702;50.856;4.348;2022-08-14T04:53:52;5.30;;;2.85;;
23068;SDS011;11702;50.856;4.348;2022-08-14T04:56:21;5.95;;;2.72;;
23068;SDS011;11702;50.856;4.348;2022-08-14T04:58:49;5.70;;;2.35;;
23068;SDS011;11702;50.856;4.348;2022-08-14T05:01:15;8.88;;;2.70;;
23068;SDS011;11702;50.856;4.348;2022-08-14T05:03:41;4.85;;;2.92;;
23068;SDS011;11702;50.856;4.348;2022-08-14T05:06:08;3.83;;;2.78;;
23068;SDS011;11702;50.856;4.348;2022-08-14T05:08:35;10.77;;;2.92;;
23068;SDS011;11702;50.856;4.348;2022-08-14T05:11:03;5.38;;;2.97;;
23068;SDS011;11702;50.856;4.348;2022-08-14T05:13:31;8.52;;;3.33;;
23068;SDS011;11702;50.856;4.348;2022-08-14T05:15:58;7.82;;;2.95;;
23068;SDS011;11702;50.856;4.348;2022-08-14T05:18:26;3.95;;;3.05;;
23068;SDS011;11702;50.856;4.348;2022-08-14T05:20:55;3.80;;;2.83;;
23068;SDS011;11702;50.856;4.348;2022-08-14T05:23:22;6.28;;;3.58;;
23068;SDS011;11702;50.856;4.348;2022-08-14T05:25:49;4.00;;;2.90;;
23068;SDS011;11702;50.856;4.348;2022-08-14T05:28:20;7.07;;;3.20;;
23068;SDS011;11702;50.856;4.348;2022-08-14T05:30:48;11.73;;;3.78;;
23068;SDS011;11702;50.856;4.348;2022-08-14T05:33:16;3.92;;;3.00;;
23068;SDS011;11702;50.856;4.348;2022-08-14T05:35:44;17.75;;;4.20;;
23068;SDS011;11702;50.856;4.348;2022-08-14T05:38:12;7.35;;;3.28;;
23068;SDS011;11702;50.856;4.348;2022-08-14T05:40:41;4.15;;;3.08;;
23068;SDS011;11702;50.856;4.348;2022-08-14T05:43:10;6.88;;;2.72;;
23068;SDS011;11702;50.856;4.348;2022-08-14T05:45:37;11.82;;;3.42;;
23068;SDS011;11702;50.856;4.348;2022-08-14T05:48:05;9.23;;;3.20;;
23068;SDS011;11702;50.856;4.348;2022-08-14T05:50:31;10.98;;;3.30;;
23068;SDS011;11702;50.856;4.348;2022-08-14T05:52:58;9.13;;;2.70;;
23068;SDS011;11702;50.856;4.348;2022-08-14T05:55:24;6.53;;;2.50;;
23068;SDS011;11702;50.856;4.348;2022-08-14T06:00:30;4.70;;;2.65;;
23068;SDS011;11702;50.856;4.348;2022-08-14T06:02:58;6.97;;;3.33;;
23068;SDS011;11702;50.856;4.348;2022-08-14T06:05:24;4.43;;;2.47;;
23068;SDS011;11702;50.856;4.348;2022-08-14T06:07:51;7.68;;;2.45;;
23068;SDS011;11702;50.856;4.348;2022-08-14T06:10:17;3.95;;;2.10;;
23068;SDS011;11702;50.856;4.348;2022-08-14T06:12:42;5.65;;;2.67;;
23068;SDS011;11702;50.856;4.348;2022-08-14T06:15:08;5.45;;;2.60;;
23068;SDS011;11702;50.856;4.348;2022-08-14T06:20:14;3.97;;;2.40;;
23068;SDS011;11702;50.856;4.348;2022-08-14T06:22:40;5.10;;;2.42;;
23068;SDS011;11702;50.856;4.348;2022-08-14T06:25:07;7.95;;;2.65;;
23068;SDS011;11702;50.856;4.348;2022-08-14T06:27:41;4.40;;;2.50;;
23068;SDS011;11702;50.856;4.348;2022-08-14T06:30:09;6.22;;;2.15;;
23068;SDS011;11702;50.856;4.348;2022-08-14T06:32:45;6.05;;;2.75;;
23068;SDS011;11702;50.856;4.348;2022-08-14T06:35:12;3.45;;;2.67;;
23068;SDS011;11702;50.856;4.348;2022-08-14T06:37:45;3.80;;;2.88;;
23068;SDS011;11702;50.856;4.348;2022-08-14T06:40:14;6.80;;;2.97;;
23068;SDS011;11702;50.856;4.348;2022-08-14T06:42:41;5.55;;;3.20;;
23068;SDS011;11702;50.856;4.348;2022-08-14T06:45:07;4.03;;;2.78;;
23068;SDS011;11702;50.856;4.348;2022-08-14T06:47:34;5.82;;;3.15;;
23068;SDS011;11702;50.856;4.348;2022-08-14T06:50:04;4.93;;;3.10;;
23068;SDS011;11702;50.856;4.348;2022-08-14T06:54:57;5.97;;;3.17;;
23068;SDS011;11702;50.856;4.348;2022-08-14T06:57:23;4.55;;;3.47;;
23068;SDS011;11702;50.856;4.348;2022-08-14T06:59:49;7.82;;;3.63;;
23068;SDS011;11702;50.856;4.348;2022-08-14T07:02:15;6.05;;;3.45;;
23068;SDS011;11702;50.856;4.348;2022-08-14T07:04:59;5.07;;;3.10;;
23068;SDS011;11702;50.856;4.348;2022-08-14T07:07:43;7.25;;;3.30;;
23068;SDS011;11702;50.856;4.348;2022-08-14T07:10:11;6.32;;;3.63;;
23068;SDS011;11702;50.856;4.348;2022-08-14T07:12:36;5.65;;;3.70;;
23068;SDS011;11702;50.856;4.348;2022-08-14T07:15:03;3.60;;;3.20;;
23068;SDS011;11702;50.856;4.348;2022-08-14T07:17:29;2.95;;;2.63;;
23068;SDS011;11702;50.856;4.348;2022-08-14T07:19:55;5.63;;;3.08;;
23068;SDS011;11702;50.856;4.348;2022-08-14T07:22:21;7.40;;;3.20;;
23068;SDS011;11702;50.856;4.348;2022-08-14T07:24:47;3.38;;;3.08;;
23068;SDS011;11702;50.856;4.348;2022-08-14T07:27:12;4.10;;;3.25;;
23068;SDS011;11702;50.856;4.348;2022-08-14T07:29:38;3.88;;;2.60;;
23068;SDS011;11702;50.856;4.348;2022-08-14T07:32:04;3.00;;;2.70;;
23068;SDS011;11702;50.856;4.348;2022-08-14T07:34:30;5.65;;;2.53;;
23068;SDS011;11702;50.856;4.348;2022-08-14T07:36:55;3.80;;;3.28;;
23068;SDS011;11702;50.856;4.348;2022-08-14T07:39:21;4.75;;;2.75;;
23068;SDS011;11702;50.856;4.348;2022-08-14T07:41:47;17.48;;;2.60;;
23068;SDS011;11702;50.856;4.348;2022-08-14T07:44:12;4.03;;;3.00;;
23068;SDS011;11702;50.856;4.348;2022-08-14T07:46:38;4.63;;;2.72;;
23068;SDS011;11702;50.856;4.348;2022-08-14T07:49:04;3.35;;;2.53;;
23068;SDS011;11702;50.856;4.348;2022-08-14T07:51:31;2.70;;;2.50;;
23068;SDS011;11702;50.856;4.348;2022-08-14T07:53:58;3.55;;;2.20;;
23068;SDS011;11702;50.856;4.348;2022-08-14T07:56:23;3.08;;;2.20;;
23068;SDS011;11702;50.856;4.348;2022-08-14T07:58:49;2.60;;;2.15;;
23068;SDS011;11702;50.856;4.348;2022-08-14T08:01:16;4.25;;;2.17;;
23068;SDS011;11702;50.856;4.348;2022-08-14T08:03:44;3.40;;;2.10;;
23068;SDS011;11702;50.856;4.348;2022-08-14T08:06:11;3.83;;;2.10;;
23068;SDS011;11702;50.856;4.348;2022-08-14T08:08:40;2.95;;;2.15;;
23068;SDS011;11702;50.856;4.348;2022-08-14T08:11:07;4.88;;;2.20;;
23068;SDS011;11702;50.856;4.348;2022-08-14T08:13:35;3.20;;;1.90;;
23068;SDS011;11702;50.856;4.348;2022-08-14T08:16:06;5.05;;;2.22;;
23068;SDS011;11702;50.856;4.348;2022-08-14T08:18:34;4.30;;;2.08;;
23068;SDS011;11702;50.856;4.348;2022-08-14T08:20:59;2.33;;;1.95;;
23068;SDS011;11702;50.856;4.348;2022-08-14T08:23:26;4.50;;;2.03;;
23068;SDS011;11702;50.856;4.348;2022-08-14T08:25:54;7.70;;;2.63;;
23068;SDS011;11702;50.856;4.348;2022-08-14T08:28:23;5.10;;;2.17;;
23068;SDS011;11702;50.856;4.348;2022-08-14T08:30:55;3.03;;;2.00;;
23068;SDS011;11702;50.856;4.348;2022-08-14T08:33:23;2.25;;;2.05;;
23068;SDS011;11702;50.856;4.348;2022-08-14T08:35:51;9.43;;;2.90;;
23068;SDS011;11702;50.856;4.348;2022-08-14T08:38:21;2.67;;;2.35;;
23068;SDS011;11702;50.856;4.348;2022-08-14T08:40:50;4.40;;;2.70;;
23068;SDS011;11702;50.856;4.348;2022-08-14T08:46:05;5.10;;;2.75;;
23068;SDS011;11702;50.856;4.348;2022-08-14T08:48:51;5.70;;;3.08;;
23068;SDS011;11702;50.856;4.348;2022-08-14T08:51:20;7.05;;;2.45;;
23068;SDS011;11702;50.856;4.348;2022-08-14T08:56:41;3.28;;;1.70;;
23068;SDS011;11702;50.856;4.348;2022-08-14T08:59:19;3.00;;;2.00;;
23068;SDS011;11702;50.856;4.348;2022-08-14T09:01:55;2.15;;;1.95;;
23068;SDS011;11702;50.856;4.348;2022-08-14T09:04:44;2.35;;;1.70;;
23068;SDS011;11702;50.856;4.348;2022-08-14T09:07:09;5.03;;;1.80;;
23068;SDS011;11702;50.856;4.348;2022-08-14T09:09:35;2.55;;;1.80;;
23068;SDS011;11702;50.856;4.348;2022-08-14T09:12:15;2.13;;;1.63;;
23068;SDS011;11702;50.856;4.348;2022-08-14T09:14:41;5.55;;;1.73;;
23068;SDS011;11702;50.856;4.348;2022-08-14T09:17:07;3.42;;;2.00;;
23068;SDS011;11702;50.856;4.348;2022-08-14T09:19:35;3.35;;;2.10;;
23068;SDS011;11702;50.856;4.348;2022-08-14T09:22:01;3.00;;;2.10;;
23068;SDS011;11702;50.856;4.348;2022-08-14T09:24:28;4.43;;;1.88;;
23068;SDS011;11702;50.856;4.348;2022-08-14T09:26:54;3.72;;;2.00;;
23068;SDS011;11702;50.856;4.348;2022-08-14T09:29:20;6.63;;;2.28;;
23068;SDS011;11702;50.856;4.348;2022-08-14T09:31:47;2.67;;;2.00;;
23068;SDS011;11702;50.856;4.348;2022-08-14T09:45:32;3.15;;;1.55;;
23068;SDS011;11702;50.856;4.348;2022-08-14T09:48:12;3.28;;;1.90;;
23068;SDS011;11702;50.856;4.348;2022-08-14T09:50:45;2.63;;;1.92;;
23068;SDS011;11702;50.856;4.348;2022-08-14T09:53:14;5.47;;;2.10;;
23068;SDS011;11702;50.856;4.348;2022-08-14T09:55:43;4.68;;;2.10;;
23068;SDS011;11702;50.856;4.348;2022-08-14T10:03:11;2.13;;;1.92;;
23068;SDS011;11702;50.856;4.348;2022-08-14T10:05:37;2.15;;;1.80;;
23068;SDS011;11702;50.856;4.348;2022-08-14T10:08:03;2.75;;;2.10;;
23068;SDS011;11702;50.856;4.348;2022-08-14T10:10:40;3.72;;;2.10;;
23068;SDS011;11702;50.856;4.348;2022-08-14T10:13:07;3.83;;;2.00;;
23068;SDS011;11702;50.856;4.348;2022-08-14T10:15:47;2.38;;;1.95;;
23068;SDS011;11702;50.856;4.348;2022-08-14T10:18:14;4.05;;;2.03;;
23068;SDS011;11702;50.856;4.348;2022-08-14T10:23:45;2.83;;;2.00;;
23068;SDS011;11702;50.856;4.348;2022-08-14T10:26:17;1.98;;;1.77;;
23068;SDS011;11702;50.856;4.348;2022-08-14T10:28:53;3.10;;;1.95;;
23068;SDS011;11702;50.856;4.348;2022-08-14T10:31:28;3.85;;;2.17;;
23068;SDS011;11702;50.856;4.348;2022-08-14T10:34:05;3.28;;;1.80;;
23068;SDS011;11702;50.856;4.348;2022-08-14T10:36:33;7.15;;;1.85;;
23068;SDS011;11702;50.856;4.348;2022-08-14T10:39:05;4.78;;;1.98;;
23068;SDS011;11702;50.856;4.348;2022-08-14T10:41:42;1.70;;;1.60;;
23068;SDS011;11702;50.856;4.348;2022-08-14T10:44:10;2.72;;;1.85;;
23068;SDS011;11702;50.856;4.348;2022-08-14T10:49:15;3.92;;;1.63;;
23068;SDS011;11702;50.856;4.348;2022-08-14T10:51:53;3.10;;;1.70;;
23068;SDS011;11702;50.856;4.348;2022-08-14T10:54:27;4.60;;;1.83;;
23068;SDS011;11702;50.856;4.348;2022-08-14T10:56:57;5.32;;;1.73;;
23068;SDS011;11702;50.856;4.348;2022-08-14T11:02:27;5.18;;;1.50;;
23068;SDS011;11702;50.856;4.348;2022-08-14T11:07:24;2.65;;;1.70;;
23068;SDS011;11702;50.856;4.348;2022-08-14T11:09:52;1.75;;;1.60;;
23068;SDS011;11702;50.856;4.348;2022-08-14T11:17:16;6.13;;;1.90;;
23068;SDS011;11702;50.856;4.348;2022-08-14T11:19:42;3.13;;;1.70;;
23068;SDS011;11702;50.856;4.348;2022-08-14T11:22:09;3.70;;;1.75;;
23068;SDS011;11702;50.856;4.348;2022-08-14T11:24:35;3.83;;;2.13;;
23068;SDS011;11702;50.856;4.348;2022-08-14T11:27:03;3.63;;;1.70;;
23068;SDS011;11702;50.856;4.348;2022-08-14T11:29:29;3.65;;;1.90;;
23068;SDS011;11702;50.856;4.348;2022-08-14T11:31:55;3.78;;;2.08;;
23068;SDS011;11702;50.856;4.348;2022-08-14T11:34:23;4.57;;;1.80;;
23068;SDS011;11702;50.856;4.348;2022-08-14T11:36:48;2.92;;;2.00;;
23068;SDS011;11702;50.856;4.348;2022-08-14T11:39:20;3.80;;;2.30;;
23068;SDS011;11702;50.856;4.348;2022-08-14T11:41:47;2.20;;;2.00;;
23068;SDS011;11702;50.856;4.348;2022-08-14T11:44:13;2.45;;;1.98;;
23068;SDS011;11702;50.856;4.348;2022-08-14T11:46:40;5.55;;;1.92;;
23068;SDS011;11702;50.856;4.348;2022-08-14T11:49:06;6.95;;;1.92;;
23068;SDS011;11702;50.856;4.348;2022-08-14T11:51:33;4.07;;;1.80;;
23068;SDS011;11702;50.856;4.348;2022-08-14T11:54:00;2.78;;;2.20;;
23068;SDS011;11702;50.856;4.348;2022-08-14T11:56:34;4.60;;;2.67;;
23068;SDS011;11702;50.856;4.348;2022-08-14T11:59:01;7.93;;;2.10;;
23068;SDS011;11702;50.856;4.348;2022-08-14T12:01:27;3.28;;;1.90;;
23068;SDS011;11702;50.856;4.348;2022-08-14T12:03:55;3.28;;;2.10;;
23068;SDS011;11702;50.856;4.348;2022-08-14T12:06:49;5.15;;;2.30;;
23068;SDS011;11702;50.856;4.348;2022-08-14T12:09:28;3.35;;;1.80;;
23068;SDS011;11702;50.856;4.348;2022-08-14T12:11:59;5.65;;;1.75;;
23068;SDS011;11702;50.856;4.348;2022-08-14T12:14:25;7.68;;;2.15;;
23068;SDS011;11702;50.856;4.348;2022-08-14T12:16:58;9.30;;;2.22;;
23068;SDS011;11702;50.856;4.348;2022-08-14T12:19:41;7.63;;;2.20;;
23068;SDS011;11702;50.856;4.348;2022-08-14T12:22:08;3.05;;;2.15;;
23068;SDS011;11702;50.856;4.348;2022-08-14T12:24:33;4.40;;;1.92;;
23068;SDS011;11702;50.856;4.348;2022-08-14T12:26:59;6.03;;;2.15;;
23068;SDS011;11702;50.856;4.348;2022-08-14T12:29:25;5.93;;;2.20;;
23068;SDS011;11702;50.856;4.348;2022-08-14T12:31:57;2.80;;;2.28;;
23068;SDS011;11702;50.856;4.348;2022-08-14T12:34:29;6.15;;;1.80;;
23068;SDS011;11702;50.856;4.348;2022-08-14T12:37:03;3.65;;;1.85;;
23068;SDS011;11702;50.856;4.348;2022-08-14T12:39:30;4.95;;;1.90;;
23068;SDS011;11702;50.856;4.348;2022-08-14T12:41:56;2.50;;;1.73;;
23068;SDS011;11702;50.856;4.348;2022-08-14T12:44:31;4.63;;;1.65;;
23068;SDS011;11702;50.856;4.348;2022-08-14T12:47:07;6.13;;;1.70;;
23068;SDS011;11702;50.856;4.348;2022-08-14T12:49:36;3.70;;;1.80;;
23068;SDS011;11702;50.856;4.348;2022-08-14T12:52:03;3.53;;;1.40;;
23068;SDS011;11702;50.856;4.348;2022-08-14T12:54:30;5.50;;;1.65;;
23068;SDS011;11702;50.856;4.348;2022-08-14T12:57:10;2.80;;;1.50;;
23068;SDS011;11702;50.856;4.348;2022-08-14T12:59:39;2.80;;;1.75;;
23068;SDS011;11702;50.856;4.348;2022-08-14T13:02:06;4.15;;;1.90;;
23068;SDS011;11702;50.856;4.348;2022-08-14T13:04:48;2.00;;;1.80;;
23068;SDS011;11702;50.856;4.348;2022-08-14T13:07:14;1.98;;;1.67;;
23068;SDS011;11702;50.856;4.348;2022-08-14T13:09:39;5.85;;;1.92;;
23068;SDS011;11702;50.856;4.348;2022-08-14T13:12:05;2.15;;;1.80;;
23068;SDS011;11702;50.856;4.348;2022-08-14T13:14:31;2.78;;;1.58;;
23068;SDS011;11702;50.856;4.348;2022-08-14T13:16:58;4.22;;;1.75;;
23068;SDS011;11702;50.856;4.348;2022-08-14T13:19:27;3.90;;;1.80;;
23068;SDS011;11702;50.856;4.348;2022-08-14T13:21:54;8.65;;;2.08;;
23068;SDS011;11702;50.856;4.348;2022-08-14T13:24:20;4.28;;;1.90;;
23068;SDS011;11702;50.856;4.348;2022-08-14T13:26:48;1.85;;;1.60;;
23068;SDS011;11702;50.856;4.348;2022-08-14T13:29:19;3.63;;;1.85;;
23068;SDS011;11702;50.856;4.348;2022-08-14T13:31:48;1.70;;;1.60;;
23068;SDS011;11702;50.856;4.348;2022-08-14T13:34:16;3.30;;;1.80;;
23068;SDS011;11702;50.856;4.348;2022-08-14T13:36:48;4.00;;;1.70;;
23068;SDS011;11702;50.856;4.348;2022-08-14T13:39:15;2.47;;;1.50;;
23068;SDS011;11702;50.856;4.348;2022-08-14T13:41:42;2.75;;;1.92;;
23068;SDS011;11702;50.856;4.348;2022-08-14T13:44:08;3.55;;;1.70;;
23068;SDS011;11702;50.856;4.348;2022-08-14T13:46:36;3.05;;;1.77;;
23068;SDS011;11702;50.856;4.348;2022-08-14T13:49:02;2.97;;;1.73;;
23068;SDS011;11702;50.856;4.348;2022-08-14T13:51:32;4.10;;;2.20;;
23068;SDS011;11702;50.856;4.348;2022-08-14T13:54:02;5.53;;;1.60;;
23068;SDS011;11702;50.856;4.348;2022-08-14T13:56:29;3.72;;;1.80;;
23068;SDS011;11702;50.856;4.348;2022-08-14T13:58:56;1.77;;;1.67;;
23068;SDS011;11702;50.856;4.348;2022-08-14T14:03:52;3.17;;;1.85;;
23068;SDS011;11702;50.856;4.348;2022-08-14T14:06:22;5.38;;;1.95;;
23068;SDS011;11702;50.856;4.348;2022-08-14T14:08:49;1.80;;;1.70;;
23068;SDS011;11702;50.856;4.348;2022-08-14T14:11:18;5.72;;;1.95;;
23068;SDS011;11702;50.856;4.348;2022-08-14T14:13:51;3.95;;;1.85;;
23068;SDS011;11702;50.856;4.348;2022-08-14T14:16:19;3.72;;;2.00;;
23068;SDS011;11702;50.856;4.348;2022-08-14T14:18:46;6.40;;;2.10;;
23068;SDS011;11702;50.856;4.348;2022-08-14T14:21:17;2.72;;;1.73;;
23068;SDS011;11702;50.856;4.348;2022-08-14T14:23:44;6.07;;;1.77;;
23068;SDS011;11702;50.856;4.348;2022-08-14T14:26:14;3.25;;;1.80;;
23068;SDS011;11702;50.856;4.348;2022-08-14T14:28:41;4.30;;;1.77;;
23068;SDS011;11702;50.856;4.348;2022-08-14T14:31:10;5.03;;;1.93;;
23068;SDS011;11702;50.856;4.348;2022-08-14T14:33:39;3.20;;;1.67;;
23068;SDS011;11702;50.856;4.348;2022-08-14T14:36:08;6.47;;;2.00;;
23068;SDS011;11702;50.856;4.348;2022-08-14T14:38:37;4.72;;;1.67;;
23068;SDS011;11702;50.856;4.348;2022-08-14T14:41:08;3.90;;;1.73;;
23068;SDS011;11702;50.856;4.348;2022-08-14T14:43:38;2.53;;;1.85;;
23068;SDS011;11702;50.856;4.348;2022-08-14T14:46:09;4.20;;;1.52;;
23068;SDS011;11702;50.856;4.348;2022-08-14T14:48:38;1.63;;;1.48;;
23068;SDS011;11702;50.856;4.348;2022-08-14T14:51:08;2.00;;;1.80;;
23068;SDS011;11702;50.856;4.348;2022-08-14T14:53:38;3.28;;;2.00;;
23068;SDS011;11702;50.856;4.348;2022-08-14T14:56:05;6.43;;;2.00;;
23068;SDS011;11702;50.856;4.348;2022-08-14T14:58:34;4.57;;;1.98;;
23068;SDS011;11702;50.856;4.348;2022-08-14T15:03:32;2.50;;;2.10;;
23068;SDS011;11702;50.856;4.348;2022-08-14T15:05:58;4.50;;;1.77;;
23068;SDS011;11702;50.856;4.348;2022-08-14T15:08:24;4.82;;;2.00;;
23068;SDS011;11702;50.856;4.348;2022-08-14T15:10:50;3.42;;;1.85;;
23068;SDS011;11702;50.856;4.348;2022-08-14T15:13:17;3.17;;;1.65;;
23068;SDS011;11702;50.856;4.348;2022-08-14T15:15:43;5.55;;;1.90;;
23068;SDS011;11702;50.856;4.348;2022-08-14T15:18:09;2.22;;;1.50;;
23068;SDS011;11702;50.856;4.348;2022-08-14T15:20:34;3.20;;;1.70;;
23068;SDS011;11702;50.856;4.348;2022-08-14T15:23:00;4.63;;;2.13;;
23068;SDS011;11702;50.856;4.348;2022-08-14T15:25:26;3.55;;;1.98;;
23068;SDS011;11702;50.856;4.348;2022-08-14T15:27:58;3.33;;;2.05;;
23068;SDS011;11702;50.856;4.348;2022-08-14T15:30:25;2.03;;;1.73;;
23068;SDS011;11702;50.856;4.348;2022-08-14T15:32:52;4.43;;;2.50;;
23068;SDS011;11702;50.856;4.348;2022-08-14T15:35:19;6.25;;;2.00;;
23068;SDS011;11702;50.856;4.348;2022-08-14T15:37:46;3.80;;;1.70;;
23068;SDS011;11702;50.856;4.348;2022-08-14T15:40:12;8.32;;;2.05;;
23068;SDS011;11702;50.856;4.348;2022-08-14T15:42:39;4.22;;;1.95;;
23068;SDS011;11702;50.856;4.348;2022-08-14T15:45:06;4.40;;;2.05;;
23068;SDS011;11702;50.856;4.348;2022-08-14T15:47:36;3.55;;;2.15;;
23068;SDS011;11702;50.856;4.348;2022-08-14T15:50:04;5.22;;;2.13;;
23068;SDS011;11702;50.856;4.348;2022-08-14T15:52:34;4.35;;;2.05;;